sensor_id;sensor_type;location;lat;lon;timestamp;temperature;humidity
47090;DHT22;32840;52.516;13.294;2023-03-29T00:00:48;5.60;99.90
47090;DHT22;32840;52.516;13.294;2023-03-29T00:03:33;5.60;99.90
47090;DHT22;32840;52.516;13.294;2023-03-29T00:06:18;5.60;99.90
47090;DHT22;32840;52.516;13.294;2023-03-29T00:09:05;5.60;99.90
47090;DHT22;32840;52.516;13.294;2023-03-29T00:11:51;5.60;99.90
47090;DHT22;32840;52.516;13.294;2023-03-29T00:14:36;5.60;99.90
47090;DHT22;32840;52.516;13.294;2023-03-29T00:17:21;5.60;99.90
47090;DHT22;32840;52.516;13.294;2023-03-29T00:20:06;5.60;99.90
47090;DHT22;32840;52.516;13.294;2023-03-29T00:22:54;5.50;99.90
47090;DHT22;32840;52.516;13.294;2023-03-29T00:25:43;5.60;99.90
47090;DHT22;32840;52.516;13.294;2023-03-29T00:28:28;5.60;99.90
47090;DHT22;32840;52.516;13.294;2023-03-29T00:31:15;5.60;99.90
47090;DHT22;32840;52.516;13.294;2023-03-29T00:34:00;5.60;99.90
47090;DHT22;32840;52.516;13.294;2023-03-29T00:36:46;5.60;99.90
47090;DHT22;32840;52.516;13.294;2023-03-29T00:39:37;5.60;99.90
47090;DHT22;32840;52.516;13.294;2023-03-29T00:42:25;5.60;99.90
47090;DHT22;32840;52.516;13.294;2023-03-29T00:45:22;5.60;99.90
47090;DHT22;32840;52.516;13.294;2023-03-29T00:48:20;5.60;99.90
47090;DHT22;32840;52.516;13.294;2023-03-29T00:51:08;5.60;99.90
47090;DHT22;32840;52.516;13.294;2023-03-29T00:53:59;5.50;99.90
47090;DHT22;32840;52.516;13.294;2023-03-29T00:56:46;5.50;99.90
47090;DHT22;32840;52.516;13.294;2023-03-29T00:59:34;5.50;99.90
47090;DHT22;32840;52.516;13.294;2023-03-29T01:02:21;5.40;99.90
47090;DHT22;32840;52.516;13.294;2023-03-29T01:05:13;5.50;99.90
47090;DHT22;32840;52.516;13.294;2023-03-29T01:08:03;5.50;99.90
47090;DHT22;32840;52.516;13.294;2023-03-29T01:10:57;5.50;99.90
47090;DHT22;32840;52.516;13.294;2023-03-29T01:13:57;5.60;99.90
47090;DHT22;32840;52.516;13.294;2023-03-29T01:16:43;5.50;99.90
47090;DHT22;32840;52.516;13.294;2023-03-29T01:19:40;5.50;99.90
47090;DHT22;32840;52.516;13.294;2023-03-29T01:26:22;5.50;99.90
47090;DHT22;32840;52.516;13.294;2023-03-29T01:29:37;5.40;99.90
47090;DHT22;32840;52.516;13.294;2023-03-29T01:32:32;5.50;99.90
47090;DHT22;32840;52.516;13.294;2023-03-29T01:35:40;5.50;99.90
47090;DHT22;32840;52.516;13.294;2023-03-29T01:38:33;5.50;99.90
47090;DHT22;32840;52.516;13.294;2023-03-29T01:41:20;5.60;99.90
47090;DHT22;32840;52.516;13.294;2023-03-29T01:44:12;5.60;99.90
47090;DHT22;32840;52.516;13.294;2023-03-29T01:47:09;5.60;99.90
47090;DHT22;32840;52.516;13.294;2023-03-29T01:50:12;5.60;99.90
47090;DHT22;32840;52.516;13.294;2023-03-29T01:56:12;5.60;99.90
47090;DHT22;32840;52.516;13.294;2023-03-29T01:59:01;5.50;99.90
47090;DHT22;32840;52.516;13.294;2023-03-29T02:01:51;5.50;99.90
47090;DHT22;32840;52.516;13.294;2023-03-29T02:04:40;5.50;99.90
47090;DHT22;32840;52.516;13.294;2023-03-29T02:07:30;5.50;99.90
47090;DHT22;32840;52.516;13.294;2023-03-29T02:10:17;5.50;99.90
47090;DHT22;32840;52.516;13.294;2023-03-29T02:13:04;5.50;99.90
47090;DHT22;32840;52.516;13.294;2023-03-29T02:15:49;5.50;99.90
47090;DHT22;32840;52.516;13.294;2023-03-29T02:18:33;5.50;99.90
47090;DHT22;32840;52.516;13.294;2023-03-29T02:21:31;5.50;99.90
47090;DHT22;32840;52.516;13.294;2023-03-29T02:24:18;5.50;99.90
47090;DHT22;32840;52.516;13.294;2023-03-29T02:27:04;5.40;99.90
47090;DHT22;32840;52.516;13.294;2023-03-29T02:29:49;5.40;99.90
47090;DHT22;32840;52.516;13.294;2023-03-29T02:35:47;5.40;99.90
47090;DHT22;32840;52.516;13.294;2023-03-29T02:38:34;5.40;99.90
47090;DHT22;32840;52.516;13.294;2023-03-29T02:41:20;5.30;99.90
47090;DHT22;32840;52.516;13.294;2023-03-29T02:44:12;5.30;99.90
47090;DHT22;32840;52.516;13.294;2023-03-29T02:47:02;5.30;99.90
47090;DHT22;32840;52.516;13.294;2023-03-29T02:49:50;5.30;99.90
47090;DHT22;32840;52.516;13.294;2023-03-29T02:52:38;5.30;99.90
47090;DHT22;32840;52.516;13.294;2023-03-29T02:55:25;5.30;99.90
47090;DHT22;32840;52.516;13.294;2023-03-29T02:58:14;5.30;99.90
47090;DHT22;32840;52.516;13.294;2023-03-29T03:01:00;5.30;99.90
47090;DHT22;32840;52.516;13.294;2023-03-29T03:03:47;5.20;99.90
47090;DHT22;32840;52.516;13.294;2023-03-29T03:06:34;5.20;99.90
47090;DHT22;32840;52.516;13.294;2023-03-29T03:09:20;5.20;99.90
47090;DHT22;32840;52.516;13.294;2023-03-29T03:12:05;5.20;99.90
47090;DHT22;32840;52.516;13.294;2023-03-29T03:14:49;5.20;99.90
47090;DHT22;32840;52.516;13.294;2023-03-29T03:17:34;5.10;99.90
47090;DHT22;32840;52.516;13.294;2023-03-29T03:20:23;5.10;99.90
47090;DHT22;32840;52.516;13.294;2023-03-29T03:23:08;5.10;99.90
47090;DHT22;32840;52.516;13.294;2023-03-29T03:25:53;5.00;99.90
47090;DHT22;32840;52.516;13.294;2023-03-29T03:28:38;5.00;99.90
47090;DHT22;32840;52.516;13.294;2023-03-29T03:31:23;5.00;99.90
47090;DHT22;32840;52.516;13.294;2023-03-29T03:34:09;4.90;99.90
47090;DHT22;32840;52.516;13.294;2023-03-29T03:36:54;4.90;99.90
47090;DHT22;32840;52.516;13.294;2023-03-29T03:39:39;4.90;99.90
47090;DHT22;32840;52.516;13.294;2023-03-29T03:42:26;4.90;99.90
47090;DHT22;32840;52.516;13.294;2023-03-29T03:45:12;5.00;99.90
47090;DHT22;32840;52.516;13.294;2023-03-29T03:47:57;4.90;99.90
47090;DHT22;32840;52.516;13.294;2023-03-29T03:50:48;4.90;99.90
47090;DHT22;32840;52.516;13.294;2023-03-29T03:53:32;4.90;99.90
47090;DHT22;32840;52.516;13.294;2023-03-29T03:56:18;5.00;99.90
47090;DHT22;32840;52.516;13.294;2023-03-29T03:59:04;4.90;99.90
47090;DHT22;32840;52.516;13.294;2023-03-29T04:01:50;5.00;99.90
47090;DHT22;32840;52.516;13.294;2023-03-29T04:04:36;4.90;99.90
47090;DHT22;32840;52.516;13.294;2023-03-29T04:07:21;4.90;99.90
47090;DHT22;32840;52.516;13.294;2023-03-29T04:10:06;4.90;99.90
47090;DHT22;32840;52.516;13.294;2023-03-29T04:12:53;4.80;99.90
47090;DHT22;32840;52.516;13.294;2023-03-29T04:15:38;4.80;99.90
47090;DHT22;32840;52.516;13.294;2023-03-29T04:18:23;4.90;99.90
47090;DHT22;32840;52.516;13.294;2023-03-29T04:21:09;4.80;99.90
47090;DHT22;32840;52.516;13.294;2023-03-29T04:23:55;4.80;99.90
47090;DHT22;32840;52.516;13.294;2023-03-29T04:26:40;4.80;99.90
47090;DHT22;32840;52.516;13.294;2023-03-29T04:29:25;4.80;99.90
47090;DHT22;32840;52.516;13.294;2023-03-29T04:32:11;4.70;99.90
47090;DHT22;32840;52.516;13.294;2023-03-29T04:34:56;4.80;99.90
47090;DHT22;32840;52.516;13.294;2023-03-29T04:37:42;4.70;99.90
47090;DHT22;32840;52.516;13.294;2023-03-29T04:40:27;4.80;99.90
47090;DHT22;32840;52.516;13.294;2023-03-29T04:43:12;4.80;99.90
47090;DHT22;32840;52.516;13.294;2023-03-29T04:45:59;4.70;99.90
47090;DHT22;32840;52.516;13.294;2023-03-29T04:48:44;4.70;99.90
47090;DHT22;32840;52.516;13.294;2023-03-29T04:51:29;4.70;99.90
47090;DHT22;32840;52.516;13.294;2023-03-29T04:54:14;4.70;99.90
47090;DHT22;32840;52.516;13.294;2023-03-29T04:57:01;4.80;99.90
47090;DHT22;32840;52.516;13.294;2023-03-29T04:59:45;4.80;99.90
47090;DHT22;32840;52.516;13.294;2023-03-29T05:02:30;4.70;99.90
47090;DHT22;32840;52.516;13.294;2023-03-29T05:05:17;4.70;99.90
47090;DHT22;32840;52.516;13.294;2023-03-29T05:08:03;4.80;99.90
47090;DHT22;32840;52.516;13.294;2023-03-29T05:10:48;4.70;99.90
47090;DHT22;32840;52.516;13.294;2023-03-29T05:13:34;4.80;99.90
47090;DHT22;32840;52.516;13.294;2023-03-29T05:16:19;4.80;99.90
47090;DHT22;32840;52.516;13.294;2023-03-29T05:19:04;4.90;99.90
47090;DHT22;32840;52.516;13.294;2023-03-29T05:21:49;4.90;99.90
47090;DHT22;32840;52.516;13.294;2023-03-29T05:24:34;4.90;99.90
47090;DHT22;32840;52.516;13.294;2023-03-29T05:27:19;5.00;99.90
47090;DHT22;32840;52.516;13.294;2023-03-29T05:30:07;5.00;99.90
47090;DHT22;32840;52.516;13.294;2023-03-29T05:32:52;5.00;99.90
47090;DHT22;32840;52.516;13.294;2023-03-29T05:35:37;5.00;99.90
47090;DHT22;32840;52.516;13.294;2023-03-29T05:38:23;5.10;99.90
47090;DHT22;32840;52.516;13.294;2023-03-29T05:41:08;5.10;99.90
47090;DHT22;32840;52.516;13.294;2023-03-29T05:43:54;5.20;99.90
47090;DHT22;32840;52.516;13.294;2023-03-29T05:46:40;5.20;99.90
47090;DHT22;32840;52.516;13.294;2023-03-29T05:49:25;5.20;99.90
47090;DHT22;32840;52.516;13.294;2023-03-29T05:52:12;5.30;99.90
47090;DHT22;32840;52.516;13.294;2023-03-29T05:54:57;5.30;99.90
47090;DHT22;32840;52.516;13.294;2023-03-29T05:57:42;5.40;99.90
47090;DHT22;32840;52.516;13.294;2023-03-29T06:00:27;5.40;99.90
47090;DHT22;32840;52.516;13.294;2023-03-29T06:03:16;5.50;99.90
47090;DHT22;32840;52.516;13.294;2023-03-29T06:06:04;5.50;99.90
47090;DHT22;32840;52.516;13.294;2023-03-29T06:08:50;5.50;99.90
47090;DHT22;32840;52.516;13.294;2023-03-29T06:11:35;5.50;99.90
47090;DHT22;32840;52.516;13.294;2023-03-29T06:14:20;5.60;99.90
47090;DHT22;32840;52.516;13.294;2023-03-29T06:17:07;5.80;99.90
47090;DHT22;32840;52.516;13.294;2023-03-29T06:19:52;5.80;99.90
47090;DHT22;32840;52.516;13.294;2023-03-29T06:22:37;5.90;99.90
47090;DHT22;32840;52.516;13.294;2023-03-29T06:25:22;5.90;99.90
47090;DHT22;32840;52.516;13.294;2023-03-29T06:28:08;5.90;99.90
47090;DHT22;32840;52.516;13.294;2023-03-29T06:30:53;5.90;99.90
47090;DHT22;32840;52.516;13.294;2023-03-29T06:33:39;5.90;99.90
47090;DHT22;32840;52.516;13.294;2023-03-29T06:36:26;6.00;99.90
47090;DHT22;32840;52.516;13.294;2023-03-29T06:39:11;6.00;99.90
47090;DHT22;32840;52.516;13.294;2023-03-29T06:41:56;6.10;99.90
47090;DHT22;32840;52.516;13.294;2023-03-29T06:44:41;6.20;99.90
47090;DHT22;32840;52.516;13.294;2023-03-29T06:47:26;6.20;99.90
47090;DHT22;32840;52.516;13.294;2023-03-29T06:50:14;6.30;99.90
47090;DHT22;32840;52.516;13.294;2023-03-29T06:53:02;6.40;99.90
47090;DHT22;32840;52.516;13.294;2023-03-29T06:55:49;6.40;99.90
47090;DHT22;32840;52.516;13.294;2023-03-29T06:58:34;6.50;99.90
47090;DHT22;32840;52.516;13.294;2023-03-29T07:01:20;6.60;99.90
47090;DHT22;32840;52.516;13.294;2023-03-29T07:04:08;6.60;99.90
47090;DHT22;32840;52.516;13.294;2023-03-29T07:06:53;6.60;99.90
47090;DHT22;32840;52.516;13.294;2023-03-29T07:09:46;6.70;99.90
47090;DHT22;32840;52.516;13.294;2023-03-29T07:12:37;6.70;99.90
47090;DHT22;32840;52.516;13.294;2023-03-29T07:15:22;6.80;99.90
47090;DHT22;32840;52.516;13.294;2023-03-29T07:18:08;6.80;99.90
47090;DHT22;32840;52.516;13.294;2023-03-29T07:20:52;6.90;99.90
47090;DHT22;32840;52.516;13.294;2023-03-29T07:23:38;7.00;99.90
47090;DHT22;32840;52.516;13.294;2023-03-29T07:26:24;7.10;99.50
47090;DHT22;32840;52.516;13.294;2023-03-29T07:29:09;7.30;99.90
47090;DHT22;32840;52.516;13.294;2023-03-29T07:31:55;7.40;98.90
47090;DHT22;32840;52.516;13.294;2023-03-29T07:34:43;7.40;98.60
47090;DHT22;32840;52.516;13.294;2023-03-29T07:37:27;7.60;99.60
47090;DHT22;32840;52.516;13.294;2023-03-29T07:40:17;7.70;98.00
47090;DHT22;32840;52.516;13.294;2023-03-29T07:43:02;7.80;97.20
47090;DHT22;32840;52.516;13.294;2023-03-29T07:45:52;7.80;97.10
47090;DHT22;32840;52.516;13.294;2023-03-29T07:48:36;7.90;96.90
47090;DHT22;32840;52.516;13.294;2023-03-29T07:51:22;7.90;96.50
47090;DHT22;32840;52.516;13.294;2023-03-29T07:54:07;8.00;96.10
47090;DHT22;32840;52.516;13.294;2023-03-29T07:56:52;8.10;96.10
47090;DHT22;32840;52.516;13.294;2023-03-29T07:59:39;8.30;96.60
47090;DHT22;32840;52.516;13.294;2023-03-29T08:02:25;8.40;96.10
47090;DHT22;32840;52.516;13.294;2023-03-29T08:05:11;8.40;95.60
47090;DHT22;32840;52.516;13.294;2023-03-29T08:07:57;8.60;95.90
47090;DHT22;32840;52.516;13.294;2023-03-29T08:10:41;8.70;95.50
47090;DHT22;32840;52.516;13.294;2023-03-29T08:13:28;8.90;97.60
47090;DHT22;32840;52.516;13.294;2023-03-29T08:16:16;9.00;94.80
47090;DHT22;32840;52.516;13.294;2023-03-29T08:19:03;9.00;95.80
47090;DHT22;32840;52.516;13.294;2023-03-29T08:21:48;9.20;96.30
47090;DHT22;32840;52.516;13.294;2023-03-29T08:24:33;9.10;94.30
47090;DHT22;32840;52.516;13.294;2023-03-29T08:27:18;9.20;93.40
47090;DHT22;32840;52.516;13.294;2023-03-29T08:30:05;9.20;93.00
47090;DHT22;32840;52.516;13.294;2023-03-29T08:32:51;9.30;92.60
47090;DHT22;32840;52.516;13.294;2023-03-29T08:35:36;9.30;92.20
47090;DHT22;32840;52.516;13.294;2023-03-29T08:38:21;9.30;91.80
47090;DHT22;32840;52.516;13.294;2023-03-29T08:41:50;9.30;92.50
47090;DHT22;32840;52.516;13.294;2023-03-29T08:45:04;9.70;91.50
47090;DHT22;32840;52.516;13.294;2023-03-29T08:50:51;10.20;90.50
47090;DHT22;32840;52.516;13.294;2023-03-29T08:53:49;10.40;90.20
47090;DHT22;32840;52.516;13.294;2023-03-29T08:56:37;10.60;89.00
47090;DHT22;32840;52.516;13.294;2023-03-29T08:59:30;10.70;89.50
47090;DHT22;32840;52.516;13.294;2023-03-29T09:02:21;10.80;88.30
47090;DHT22;32840;52.516;13.294;2023-03-29T09:05:21;11.00;87.80
47090;DHT22;32840;52.516;13.294;2023-03-29T09:08:18;11.30;87.20
47090;DHT22;32840;52.516;13.294;2023-03-29T09:14:23;11.90;85.40
47090;DHT22;32840;52.516;13.294;2023-03-29T09:20:36;11.80;84.30
47090;DHT22;32840;52.516;13.294;2023-03-29T09:23:53;11.80;83.50
47090;DHT22;32840;52.516;13.294;2023-03-29T09:27:15;11.90;82.80
47090;DHT22;32840;52.516;13.294;2023-03-29T09:33:37;12.00;82.50
47090;DHT22;32840;52.516;13.294;2023-03-29T09:36:39;12.10;83.00
47090;DHT22;32840;52.516;13.294;2023-03-29T09:39:28;12.20;82.10
47090;DHT22;32840;52.516;13.294;2023-03-29T09:42:16;12.10;81.90
47090;DHT22;32840;52.516;13.294;2023-03-29T09:45:04;12.10;81.90
47090;DHT22;32840;52.516;13.294;2023-03-29T09:48:10;12.30;82.90
47090;DHT22;32840;52.516;13.294;2023-03-29T09:50:55;12.70;81.80
47090;DHT22;32840;52.516;13.294;2023-03-29T09:53:40;12.80;82.10
47090;DHT22;32840;52.516;13.294;2023-03-29T09:56:27;12.80;80.30
47090;DHT22;32840;52.516;13.294;2023-03-29T09:59:12;12.70;79.40
47090;DHT22;32840;52.516;13.294;2023-03-29T10:02:07;12.80;79.30
47090;DHT22;32840;52.516;13.294;2023-03-29T10:04:53;12.80;79.40
47090;DHT22;32840;52.516;13.294;2023-03-29T10:07:44;12.60;80.00
47090;DHT22;32840;52.516;13.294;2023-03-29T10:10:32;12.50;78.60
47090;DHT22;32840;52.516;13.294;2023-03-29T10:13:22;12.40;82.30
47090;DHT22;32840;52.516;13.294;2023-03-29T10:16:18;12.20;81.30
47090;DHT22;32840;52.516;13.294;2023-03-29T10:19:30;12.10;82.10
47090;DHT22;32840;52.516;13.294;2023-03-29T10:22:26;12.10;82.30
47090;DHT22;32840;52.516;13.294;2023-03-29T10:25:12;12.10;82.80
47090;DHT22;32840;52.516;13.294;2023-03-29T10:28:09;12.20;82.60
47090;DHT22;32840;52.516;13.294;2023-03-29T10:30:58;12.20;83.00
47090;DHT22;32840;52.516;13.294;2023-03-29T10:33:55;12.10;82.80
47090;DHT22;32840;52.516;13.294;2023-03-29T10:36:42;12.10;82.70
47090;DHT22;32840;52.516;13.294;2023-03-29T10:39:31;12.10;84.80
47090;DHT22;32840;52.516;13.294;2023-03-29T10:42:18;12.20;83.30
47090;DHT22;32840;52.516;13.294;2023-03-29T10:45:19;12.10;84.00
47090;DHT22;32840;52.516;13.294;2023-03-29T10:48:11;12.30;83.10
47090;DHT22;32840;52.516;13.294;2023-03-29T10:50:58;12.60;84.00
47090;DHT22;32840;52.516;13.294;2023-03-29T10:53:47;12.70;81.80
47090;DHT22;32840;52.516;13.294;2023-03-29T10:56:38;12.70;80.30
47090;DHT22;32840;52.516;13.294;2023-03-29T10:59:30;12.60;81.90
47090;DHT22;32840;52.516;13.294;2023-03-29T11:05:36;12.80;81.10
47090;DHT22;32840;52.516;13.294;2023-03-29T11:08:32;12.80;80.50
47090;DHT22;32840;52.516;13.294;2023-03-29T11:17:53;12.90;80.40
47090;DHT22;32840;52.516;13.294;2023-03-29T11:30:32;13.00;79.60
47090;DHT22;32840;52.516;13.294;2023-03-29T11:33:39;13.00;79.10
47090;DHT22;32840;52.516;13.294;2023-03-29T11:36:38;13.10;79.20
47090;DHT22;32840;52.516;13.294;2023-03-29T11:42:34;13.10;78.30
47090;DHT22;32840;52.516;13.294;2023-03-29T11:45:35;13.00;77.80
47090;DHT22;32840;52.516;13.294;2023-03-29T11:48:30;12.90;78.70
47090;DHT22;32840;52.516;13.294;2023-03-29T11:51:43;12.80;80.20
47090;DHT22;32840;52.516;13.294;2023-03-29T11:54:31;13.10;78.40
47090;DHT22;32840;52.516;13.294;2023-03-29T12:00:16;13.30;77.50
47090;DHT22;32840;52.516;13.294;2023-03-29T12:03:12;13.10;77.40
47090;DHT22;32840;52.516;13.294;2023-03-29T12:09:09;13.10;78.50
47090;DHT22;32840;52.516;13.294;2023-03-29T12:12:04;13.10;78.10
47090;DHT22;32840;52.516;13.294;2023-03-29T12:15:03;13.30;77.80
47090;DHT22;32840;52.516;13.294;2023-03-29T12:18:01;13.40;74.90
47090;DHT22;32840;52.516;13.294;2023-03-29T12:20:51;13.30;75.60
47090;DHT22;32840;52.516;13.294;2023-03-29T12:23:37;13.30;76.10
47090;DHT22;32840;52.516;13.294;2023-03-29T12:30:07;13.60;75.60
47090;DHT22;32840;52.516;13.294;2023-03-29T12:38:58;13.70;74.00
47090;DHT22;32840;52.516;13.294;2023-03-29T12:42:02;13.70;73.30
47090;DHT22;32840;52.516;13.294;2023-03-29T12:44:57;13.60;73.20
47090;DHT22;32840;52.516;13.294;2023-03-29T12:47:45;13.60;74.60
47090;DHT22;32840;52.516;13.294;2023-03-29T12:50:49;13.60;75.90
47090;DHT22;32840;52.516;13.294;2023-03-29T12:53:50;13.60;74.20
47090;DHT22;32840;52.516;13.294;2023-03-29T12:59:46;13.60;73.90
47090;DHT22;32840;52.516;13.294;2023-03-29T13:02:34;13.60;72.20
47090;DHT22;32840;52.516;13.294;2023-03-29T13:05:29;13.60;72.30
47090;DHT22;32840;52.516;13.294;2023-03-29T13:08:41;13.70;71.90
47090;DHT22;32840;52.516;13.294;2023-03-29T13:11:36;13.70;71.00
47090;DHT22;32840;52.516;13.294;2023-03-29T13:14:27;13.60;71.20
47090;DHT22;32840;52.516;13.294;2023-03-29T13:20:54;13.80;70.40
47090;DHT22;32840;52.516;13.294;2023-03-29T13:33:56;13.40;70.00
47090;DHT22;32840;52.516;13.294;2023-03-29T13:40:41;13.20;71.40
47090;DHT22;32840;52.516;13.294;2023-03-29T13:43:51;13.20;73.00
47090;DHT22;32840;52.516;13.294;2023-03-29T13:46:41;13.10;72.40
47090;DHT22;32840;52.516;13.294;2023-03-29T13:49:30;13.10;74.60
47090;DHT22;32840;52.516;13.294;2023-03-29T13:52:23;13.20;73.70
47090;DHT22;32840;52.516;13.294;2023-03-29T13:55:28;13.20;73.70
47090;DHT22;32840;52.516;13.294;2023-03-29T13:59:04;13.20;74.40
47090;DHT22;32840;52.516;13.294;2023-03-29T14:04:45;13.40;73.70
47090;DHT22;32840;52.516;13.294;2023-03-29T14:07:35;13.40;73.00
47090;DHT22;32840;52.516;13.294;2023-03-29T14:10:29;13.40;73.00
47090;DHT22;32840;52.516;13.294;2023-03-29T14:13:21;13.40;72.50
47090;DHT22;32840;52.516;13.294;2023-03-29T14:16:09;13.20;74.30
47090;DHT22;32840;52.516;13.294;2023-03-29T14:18:58;13.20;74.30
47090;DHT22;32840;52.516;13.294;2023-03-29T14:21:43;13.20;74.80
47090;DHT22;32840;52.516;13.294;2023-03-29T14:24:45;13.10;75.10
47090;DHT22;32840;52.516;13.294;2023-03-29T14:27:35;13.10;75.50
47090;DHT22;32840;52.516;13.294;2023-03-29T14:30:27;13.00;75.80
47090;DHT22;32840;52.516;13.294;2023-03-29T14:33:29;13.00;76.10
47090;DHT22;32840;52.516;13.294;2023-03-29T14:36:15;13.00;76.70
47090;DHT22;32840;52.516;13.294;2023-03-29T14:39:06;12.90;76.20
47090;DHT22;32840;52.516;13.294;2023-03-29T14:41:54;12.90;76.30
47090;DHT22;32840;52.516;13.294;2023-03-29T14:44:41;12.90;76.90
47090;DHT22;32840;52.516;13.294;2023-03-29T14:47:33;12.90;77.20
47090;DHT22;32840;52.516;13.294;2023-03-29T14:50:27;13.00;77.90
47090;DHT22;32840;52.516;13.294;2023-03-29T14:53:24;13.00;77.50
47090;DHT22;32840;52.516;13.294;2023-03-29T14:56:15;13.00;77.60
47090;DHT22;32840;52.516;13.294;2023-03-29T15:02:22;13.00;78.20
47090;DHT22;32840;52.516;13.294;2023-03-29T15:05:31;12.90;78.70
47090;DHT22;32840;52.516;13.294;2023-03-29T15:08:22;12.80;79.60
47090;DHT22;32840;52.516;13.294;2023-03-29T15:11:20;12.80;80.30
47090;DHT22;32840;52.516;13.294;2023-03-29T15:14:14;12.80;80.50
47090;DHT22;32840;52.516;13.294;2023-03-29T15:17:04;12.70;80.90
47090;DHT22;32840;52.516;13.294;2023-03-29T15:19:51;12.80;81.90
47090;DHT22;32840;52.516;13.294;2023-03-29T15:22:37;12.80;82.30
47090;DHT22;32840;52.516;13.294;2023-03-29T15:25:26;12.80;83.50
47090;DHT22;32840;52.516;13.294;2023-03-29T15:28:32;12.80;84.30
47090;DHT22;32840;52.516;13.294;2023-03-29T15:31:20;12.80;84.70
47090;DHT22;32840;52.516;13.294;2023-03-29T15:34:13;12.80;85.00
47090;DHT22;32840;52.516;13.294;2023-03-29T15:37:10;12.90;85.40
47090;DHT22;32840;52.516;13.294;2023-03-29T15:39:55;12.80;85.70
47090;DHT22;32840;52.516;13.294;2023-03-29T15:42:40;12.70;86.20
47090;DHT22;32840;52.516;13.294;2023-03-29T15:45:25;12.70;86.70
47090;DHT22;32840;52.516;13.294;2023-03-29T15:48:18;12.70;86.40
47090;DHT22;32840;52.516;13.294;2023-03-29T15:51:05;12.80;87.00
47090;DHT22;32840;52.516;13.294;2023-03-29T15:53:49;12.90;86.30
47090;DHT22;32840;52.516;13.294;2023-03-29T15:56:40;12.90;86.70
47090;DHT22;32840;52.516;13.294;2023-03-29T15:59:30;12.90;86.50
47090;DHT22;32840;52.516;13.294;2023-03-29T16:02:16;12.90;86.40
47090;DHT22;32840;52.516;13.294;2023-03-29T16:05:03;12.90;86.70
47090;DHT22;32840;52.516;13.294;2023-03-29T16:07:48;12.90;87.20
47090;DHT22;32840;52.516;13.294;2023-03-29T16:10:34;12.80;87.20
47090;DHT22;32840;52.516;13.294;2023-03-29T16:13:20;12.80;87.40
47090;DHT22;32840;52.516;13.294;2023-03-29T16:16:05;12.80;87.40
47090;DHT22;32840;52.516;13.294;2023-03-29T16:18:50;12.80;88.00
47090;DHT22;32840;52.516;13.294;2023-03-29T16:21:35;12.70;87.70
47090;DHT22;32840;52.516;13.294;2023-03-29T16:24:24;12.70;88.20
47090;DHT22;32840;52.516;13.294;2023-03-29T16:27:09;12.80;88.30
47090;DHT22;32840;52.516;13.294;2023-03-29T16:29:54;12.70;88.30
47090;DHT22;32840;52.516;13.294;2023-03-29T16:32:40;12.70;88.60
47090;DHT22;32840;52.516;13.294;2023-03-29T16:35:28;12.70;89.20
47090;DHT22;32840;52.516;13.294;2023-03-29T16:38:13;12.60;89.30
47090;DHT22;32840;52.516;13.294;2023-03-29T16:40:58;12.60;89.90
47090;DHT22;32840;52.516;13.294;2023-03-29T16:43:43;12.70;90.20
47090;DHT22;32840;52.516;13.294;2023-03-29T16:46:28;12.60;90.30
47090;DHT22;32840;52.516;13.294;2023-03-29T16:49:13;12.60;90.30
47090;DHT22;32840;52.516;13.294;2023-03-29T16:52:02;12.70;90.50
47090;DHT22;32840;52.516;13.294;2023-03-29T16:54:48;12.70;90.60
47090;DHT22;32840;52.516;13.294;2023-03-29T16:57:35;12.70;90.60
47090;DHT22;32840;52.516;13.294;2023-03-29T17:00:20;12.60;90.70
47090;DHT22;32840;52.516;13.294;2023-03-29T17:03:06;12.60;90.90
47090;DHT22;32840;52.516;13.294;2023-03-29T17:05:52;12.60;91.10
47090;DHT22;32840;52.516;13.294;2023-03-29T17:08:38;12.50;91.30
47090;DHT22;32840;52.516;13.294;2023-03-29T17:11:24;12.50;91.60
47090;DHT22;32840;52.516;13.294;2023-03-29T17:14:10;12.50;92.10
47090;DHT22;32840;52.516;13.294;2023-03-29T17:16:57;12.50;91.90
47090;DHT22;32840;52.516;13.294;2023-03-29T17:19:45;12.50;92.10
47090;DHT22;32840;52.516;13.294;2023-03-29T17:22:30;12.60;92.30
47090;DHT22;32840;52.516;13.294;2023-03-29T17:25:15;12.60;92.40
47090;DHT22;32840;52.516;13.294;2023-03-29T17:28:00;12.50;92.70
47090;DHT22;32840;52.516;13.294;2023-03-29T17:30:45;12.50;93.00
47090;DHT22;32840;52.516;13.294;2023-03-29T17:33:31;12.50;93.10
47090;DHT22;32840;52.516;13.294;2023-03-29T17:36:15;12.40;93.30
47090;DHT22;32840;52.516;13.294;2023-03-29T17:39:02;12.40;93.60
47090;DHT22;32840;52.516;13.294;2023-03-29T17:41:52;12.40;94.00
47090;DHT22;32840;52.516;13.294;2023-03-29T17:44:39;12.40;94.10
47090;DHT22;32840;52.516;13.294;2023-03-29T17:47:26;12.50;94.20
47090;DHT22;32840;52.516;13.294;2023-03-29T17:50:16;12.50;94.30
47090;DHT22;32840;52.516;13.294;2023-03-29T17:53:02;12.40;94.80
47090;DHT22;32840;52.516;13.294;2023-03-29T17:55:46;12.40;95.20
47090;DHT22;32840;52.516;13.294;2023-03-29T17:58:33;12.30;95.10
47090;DHT22;32840;52.516;13.294;2023-03-29T18:01:18;12.30;95.40
47090;DHT22;32840;52.516;13.294;2023-03-29T18:04:05;12.40;95.50
47090;DHT22;32840;52.516;13.294;2023-03-29T18:06:54;12.40;95.80
47090;DHT22;32840;52.516;13.294;2023-03-29T18:09:40;12.30;96.10
47090;DHT22;32840;52.516;13.294;2023-03-29T18:12:27;12.30;96.30
47090;DHT22;32840;52.516;13.294;2023-03-29T18:15:12;12.30;96.50
47090;DHT22;32840;52.516;13.294;2023-03-29T18:17:56;12.30;96.80
47090;DHT22;32840;52.516;13.294;2023-03-29T18:20:43;12.30;97.10
47090;DHT22;32840;52.516;13.294;2023-03-29T18:23:31;12.20;97.20
47090;DHT22;32840;52.516;13.294;2023-03-29T18:26:17;12.20;97.60
47090;DHT22;32840;52.516;13.294;2023-03-29T18:29:02;12.20;97.80
47090;DHT22;32840;52.516;13.294;2023-03-29T18:31:48;12.20;98.10
47090;DHT22;32840;52.516;13.294;2023-03-29T18:34:33;12.20;98.30
47090;DHT22;32840;52.516;13.294;2023-03-29T18:37:19;12.20;98.50
47090;DHT22;32840;52.516;13.294;2023-03-29T18:40:05;12.20;98.80
47090;DHT22;32840;52.516;13.294;2023-03-29T18:42:51;12.10;99.10
47090;DHT22;32840;52.516;13.294;2023-03-29T18:45:37;12.20;99.50
47090;DHT22;32840;52.516;13.294;2023-03-29T18:48:22;12.10;99.60
47090;DHT22;32840;52.516;13.294;2023-03-29T18:51:08;12.10;99.90
47090;DHT22;32840;52.516;13.294;2023-03-29T18:53:57;12.10;99.90
47090;DHT22;32840;52.516;13.294;2023-03-29T18:56:48;12.10;99.90
47090;DHT22;32840;52.516;13.294;2023-03-29T18:59:33;12.10;99.90
47090;DHT22;32840;52.516;13.294;2023-03-29T19:02:20;12.10;99.90
47090;DHT22;32840;52.516;13.294;2023-03-29T19:05:05;12.10;99.90
47090;DHT22;32840;52.516;13.294;2023-03-29T19:07:51;12.10;99.90